Aberdeen, Mississippi
Current Conditions -  °F | °C
As of 10:55 PM on Sunday 21 Dec 2014 (Local Time) from KM40 Reporting Station
Haze Haze  
Wind Chill: 48°   Ceiling: 1500
Heat Index: 48°   Visibility: 5mi
Dew Point: 36°   Wind: 0mph
Humidity: 62%   Direction: NA
Pressure: 30.01"   Gusts: NA
Location:  33.82°N, 88.54°W
Report Text: KM40 220455Z AUTO 00000KT 5SM HZ OVC015 09/02 A3001 RMK AO2
Loading
Personal Weather Stations






























Interactive Weather Map New forecast layout! Learn more

10-Day Weather Forecast

Advertisements
Track Severe Weather on mobile